Time;durP1;ratioP1;P1;durP2;ratioP2;P2;SDS_P1;SDS_P2;PMS_P1;PMS_P2;Temp;Humidity;BMP_temperature;BMP_pressure;BME280_temperature;BME280_humidity;BME280_pressure;Samples;Min_cycle;Max_cycle;Signal;HPM_P1;HPM_P2
2022/04/25 00:00:29;;;;;;;1.63;1.37;;;24.30;65.30;;;;;;5053253;28;20934;-80
2022/04/25 00:02:57;;;;;;;1.20;1.10;;;24.30;62.10;;;;;;5053380;28;20468;-80
2022/04/25 00:05:25;;;;;;;1.60;1.50;;;24.30;61.10;;;;;;5053598;28;20569;-80
2022/04/25 00:07:52;;;;;;;1.30;1.20;;;24.30;62.90;;;;;;5053314;28;20474;-79
2022/04/25 00:10:19;;;;;;;1.33;1.23;;;24.30;64.10;;;;;;5053230;28;20791;-79
2022/04/25 00:12:46;;;;;;;1.47;1.37;;;24.30;64.60;;;;;;5053158;28;20434;-80
2022/04/25 00:15:13;;;;;;;1.40;1.30;;;24.30;65.00;;;;;;5053163;28;20433;-79
2022/04/25 00:17:40;;;;;;;1.30;1.20;;;24.30;65.60;;;;;;5053460;28;20444;-80
2022/04/25 00:20:08;;;;;;;1.47;1.37;;;24.30;64.90;;;;;;5053172;28;20442;-80
2022/04/25 00:22:36;;;;;;;1.40;1.30;;;24.40;64.90;;;;;;5053090;28;20441;-80
2022/04/25 00:25:04;;;;;;;1.40;1.30;;;24.40;62.80;;;;;;5053124;28;20441;-80
2022/04/25 00:27:31;;;;;;;1.30;1.20;;;24.30;62.30;;;;;;5053192;28;20449;-80
2022/04/25 00:29:58;;;;;;;1.50;1.10;;;24.30;61.60;;;;;;5052966;28;20452;-80
2022/04/25 00:32:25;;;;;;;1.10;1.00;;;24.30;61.00;;;;;;5053083;28;20529;-80
2022/04/25 00:34:52;;;;;;;1.30;1.20;;;24.30;60.90;;;;;;5053265;28;20453;-80
2022/04/25 00:37:18;;;;;;;1.40;1.30;;;24.30;60.40;;;;;;5052987;28;20504;-79
2022/04/25 00:39:46;;;;;;;1.50;1.40;;;24.30;60.40;;;;;;5053012;28;20442;-79
2022/04/25 00:42:13;;;;;;;1.37;1.27;;;24.30;60.40;;;;;;5052824;28;20456;-79
2022/04/25 00:44:41;;;;;;;1.37;1.27;;;24.30;60.50;;;;;;5053010;28;20434;-79
2022/04/25 00:47:10;;;;;;;1.30;1.20;;;24.30;60.90;;;;;;5052924;28;20445;-79
2022/04/25 00:49:37;;;;;;;1.30;1.20;;;24.30;60.80;;;;;;5053083;28;20794;-82
2022/04/25 00:52:04;;;;;;;1.30;1.20;;;24.30;61.10;;;;;;5053007;28;20441;-79
2022/04/25 00:54:32;;;;;;;1.30;1.20;;;24.30;61.10;;;;;;5052615;28;20457;-80
2022/04/25 00:57:00;;;;;;;1.40;1.17;;;24.30;61.00;;;;;;5052862;28;20579;-79
2022/04/25 00:59:27;;;;;;;1.20;1.10;;;24.30;61.10;;;;;;5052898;28;20777;-80
2022/04/25 01:01:54;;;;;;;1.27;1.17;;;24.30;61.10;;;;;;5035278;28;20453;-80
2022/04/25 01:04:21;;;;;;;1.30;1.20;;;24.30;61.40;;;;;;5052848;28;20434;-80
2022/04/25 01:06:49;;;;;;;1.20;1.10;;;24.20;61.10;;;;;;5056543;28;20441;-79
2022/04/25 01:09:16;;;;;;;1.47;1.37;;;24.30;61.30;;;;;;5056517;28;20543;-82
2022/04/25 01:11:42;;;;;;;1.30;1.17;;;24.30;61.40;;;;;;5056531;28;20442;-81
2022/04/25 01:14:15;;;;;;;1.20;1.10;;;24.30;61.50;;;;;;5056751;28;20442;-84
2022/04/25 01:16:42;;;;;;;1.27;1.17;;;24.30;61.30;;;;;;5055974;28;20572;-81
2022/04/25 01:19:09;;;;;;;2.70;1.20;;;24.40;61.90;;;;;;5038683;28;20446;-81
2022/04/25 01:21:42;;;;;;;1.20;1.10;;;24.30;61.70;;;;;;5056371;28;20437;-81
2022/04/25 01:29:40;;;;;;;1.53;1.43;;;24.20;61.50;;;;;;5056473;28;20567;-82
2022/04/25 01:32:08;;;;;;;1.57;1.47;;;24.20;61.50;;;;;;5055382;28;20445;-81
2022/04/25 01:34:37;;;;;;;1.40;1.30;;;24.20;61.70;;;;;;5056282;28;20437;-82
2022/04/25 01:37:06;;;;;;;1.30;1.20;;;24.20;61.70;;;;;;5056226;28;20489;-82
2022/04/25 01:39:35;;;;;;;1.33;1.00;;;24.20;61.90;;;;;;5056268;28;20429;-82
2022/04/25 01:42:03;;;;;;;1.10;1.00;;;24.20;61.80;;;;;;5022216;28;20810;-82
2022/04/25 01:44:30;;;;;;;1.00;0.90;;;24.20;61.80;;;;;;5056182;28;20437;-82
2022/04/25 01:46:56;;;;;;;1.20;1.10;;;24.20;61.80;;;;;;5056123;28;20446;-81
2022/04/25 01:49:23;;;;;;;1.33;1.23;;;24.20;61.90;;;;;;5055914;28;20449;-81
2022/04/25 01:51:50;;;;;;;1.30;1.20;;;24.20;62.40;;;;;;5055847;28;20451;-81
2022/04/25 01:54:24;;;;;;;2.17;1.10;;;24.20;62.20;;;;;;5055709;28;20817;-81
2022/04/25 01:56:52;;;;;;;1.20;1.10;;;24.30;62.50;;;;;;5055837;28;20493;-82
2022/04/25 01:59:19;;;;;;;1.47;1.30;;;24.30;62.60;;;;;;5055613;28;20453;-81
2022/04/25 02:01:46;;;;;;;1.10;1.00;;;24.20;62.30;;;;;;5055612;28;20807;-82
2022/04/25 02:04:13;;;;;;;1.17;1.07;;;24.30;62.40;;;;;;5055729;28;20438;-82
2022/04/25 02:06:40;;;;;;;1.50;1.40;;;24.20;62.00;;;;;;5055614;28;20933;-82
2022/04/25 02:09:06;;;;;;;1.10;1.00;;;24.20;62.00;;;;;;5055480;28;20846;-80
2022/04/25 02:11:33;;;;;;;1.20;1.10;;;24.20;62.20;;;;;;5055372;28;20434;-79
2022/04/25 02:14:01;;;;;;;1.40;1.30;;;24.20;62.40;;;;;;5055598;28;20438;-80
2022/04/25 02:16:28;;;;;;;1.27;1.00;;;24.20;62.60;;;;;;5054443;28;20815;-82
2022/04/25 02:18:55;;;;;;;1.20;1.00;;;24.20;62.50;;;;;;5055415;28;20442;-82
2022/04/25 02:21:23;;;;;;;1.20;1.10;;;24.20;62.90;;;;;;5055425;28;20442;-82
2022/04/25 02:23:50;;;;;;;1.20;1.10;;;24.20;62.80;;;;;;5055369;28;20472;-82
2022/04/25 02:26:17;;;;;;;1.10;1.00;;;24.20;62.60;;;;;;5055325;28;20441;-82
2022/04/25 02:28:44;;;;;;;1.10;1.00;;;24.20;62.70;;;;;;5055375;28;20460;-79
2022/04/25 02:31:12;;;;;;;1.10;1.00;;;24.20;62.80;;;;;;5054989;28;20811;-79
2022/04/25 02:33:41;;;;;;;1.20;1.07;;;24.20;63.10;;;;;;5055142;28;20529;-79
2022/04/25 02:36:08;;;;;;;1.20;1.10;;;24.20;62.90;;;;;;5055025;28;20496;-82
2022/04/25 02:38:36;;;;;;;1.10;1.00;;;24.20;63.10;;;;;;5055117;28;20441;-80
2022/04/25 02:41:08;;;;;;;1.30;1.17;;;24.20;63.00;;;;;;5054941;28;20444;-82
2022/04/25 02:43:36;;;;;;;1.00;0.90;;;24.20;62.00;;;;;;5055117;28;20525;-79
2022/04/25 02:46:05;;;;;;;1.37;1.27;;;24.20;61.70;;;;;;5054950;28;20447;-79
2022/04/25 02:48:33;;;;;;;1.10;1.00;;;24.20;62.20;;;;;;5054306;28;20441;-81
2022/04/25 02:51:01;;;;;;;1.00;0.90;;;24.20;62.70;;;;;;5054622;28;20441;-82
2022/04/25 02:53:28;;;;;;;1.27;1.17;;;24.20;62.80;;;;;;5054705;28;20458;-79
2022/04/25 02:55:55;;;;;;;1.27;1.17;;;24.20;62.40;;;;;;5054795;28;20444;-80
2022/04/25 02:58:22;;;;;;;1.30;1.20;;;24.20;62.60;;;;;;5053964;28;20529;-80
2022/04/25 03:00:49;;;;;;;1.10;0.90;;;24.20;62.80;;;;;;5054601;28;20453;-80
2022/04/25 03:03:19;;;;;;;1.13;1.03;;;24.20;62.80;;;;;;5054461;28;20445;-81
2022/04/25 03:05:48;;;;;;;1.20;1.10;;;24.20;62.80;;;;;;5054565;28;20460;-80
2022/04/25 03:08:18;;;;;;;1.30;1.20;;;24.20;62.90;;;;;;5054557;28;20488;-83
2022/04/25 03:10:46;;;;;;;1.33;1.23;;;24.20;63.10;;;;;;5054563;28;20500;-81
2022/04/25 03:13:14;;;;;;;1.30;1.20;;;24.20;63.20;;;;;;5054686;28;20813;-80
2022/04/25 03:15:42;;;;;;;1.20;1.10;;;24.20;62.90;;;;;;5053937;28;20926;-80
2022/04/25 03:18:11;;;;;;;1.40;1.30;;;24.20;62.70;;;;;;5054012;28;20497;-81
2022/04/25 03:20:38;;;;;;;1.13;1.03;;;24.20;62.90;;;;;;5036090;28;20446;-81
2022/04/25 03:23:07;;;;;;;1.20;1.10;;;24.30;63.90;;;;;;5053942;28;21014;-80
2022/04/25 03:25:34;;;;;;;1.10;1.00;;;24.20;63.70;;;;;;5049986;28;20438;-81
2022/04/25 03:28:01;;;;;;;1.30;1.20;;;24.20;62.80;;;;;;5050238;28;20938;-80
2022/04/25 03:30:29;;;;;;;1.20;1.10;;;24.30;62.70;;;;;;5040407;28;20433;-80
2022/04/25 03:32:58;;;;;;;1.30;1.20;;;24.20;63.20;;;;;;5046475;28;20433;-82
2022/04/25 03:35:25;;;;;;;1.20;1.10;;;24.20;64.00;;;;;;5042487;28;20444;-80
2022/04/25 03:37:53;;;;;;;1.13;1.03;;;24.20;64.20;;;;;;5042584;28;20478;-80
2022/04/25 03:40:21;;;;;;;1.20;1.10;;;24.20;64.30;;;;;;5050846;28;20441;-80
2022/04/25 03:42:48;;;;;;;1.20;0.97;;;24.20;64.90;;;;;;5043627;28;20879;-81
2022/04/25 03:45:17;;;;;;;1.10;1.00;;;24.20;64.60;;;;;;5048546;28;20434;-81
2022/04/25 03:47:46;;;;;;;1.10;1.00;;;24.20;62.30;;;;;;5053948;28;20442;-90
2022/04/25 03:50:14;;;;;;;1.30;1.20;;;24.10;61.10;;;;;;5043577;28;20437;-80
2022/04/25 03:52:43;;;;;;;1.33;1.23;;;24.20;61.70;;;;;;5042775;28;20961;-79
2022/04/25 03:57:58;;;;;;;1.37;1.10;;;24.10;62.40;;;;;;5041253;28;20529;-80
2022/04/25 04:00:25;;;;;;;1.20;1.10;;;24.10;63.00;;;;;;5031707;28;20837;-81
2022/04/25 04:02:52;;;;;;;1.30;1.00;;;24.10;62.30;;;;;;5031570;28;20817;-86
2022/04/25 04:05:20;;;;;;;1.40;1.30;;;24.20;62.80;;;;;;5031682;28;20949;-81
2022/04/25 04:07:48;;;;;;;1.23;1.13;;;24.10;62.40;;;;;;5031809;28;20480;-81
2022/04/25 04:10:16;;;;;;;1.80;1.33;;;24.10;61.60;;;;;;5033305;28;20449;-81
2022/04/25 04:12:44;;;;;;;1.30;1.20;;;24.10;61.60;;;;;;5032915;28;20445;-92
2022/04/25 04:15:13;;;;;;;1.57;1.17;;;24.10;61.60;;;;;;5033386;28;20446;-81
2022/04/25 04:17:40;;;;;;;1.20;0.97;;;24.10;60.50;;;;;;5033346;28;20486;-81
2022/04/25 04:20:09;;;;;;;1.17;1.07;;;24.10;60.30;;;;;;5033367;28;20447;-81
2022/04/25 04:22:36;;;;;;;1.40;1.30;;;24.20;60.60;;;;;;5033261;28;20438;-81
2022/04/25 04:25:05;;;;;;;1.03;0.93;;;24.10;60.40;;;;;;5033179;28;20446;-81
2022/04/25 04:27:32;;;;;;;1.10;1.00;;;24.10;60.30;;;;;;5033356;28;20439;-86
2022/04/25 04:29:59;;;;;;;1.10;1.00;;;24.10;60.00;;;;;;5033331;28;20439;-91
2022/04/25 04:32:30;;;;;;;1.10;0.97;;;24.10;60.10;;;;;;5033118;28;20489;-81
2022/04/25 04:34:57;;;;;;;1.10;1.00;;;24.10;60.20;;;;;;5033211;28;20950;-81
2022/04/25 04:37:25;;;;;;;1.53;1.43;;;24.10;60.20;;;;;;5033126;28;20559;-81
2022/04/25 04:40:27;;;;;;;1.30;1.20;;;24.10;60.50;;;;;;5032631;28;20438;-81
2022/04/25 04:42:39;;;;;;;1.10;1.00;;;24.10;60.50;;;;;;5032746;28;20453;-81
2022/04/25 04:45:06;;;;;;;1.10;1.00;;;24.10;60.30;;;;;;5033135;28;20450;-81
2022/04/25 04:47:35;;;;;;;1.00;0.90;;;24.10;60.40;;;;;;5033003;28;20445;-81
2022/04/25 04:50:02;;;;;;;1.10;1.00;;;24.10;60.00;;;;;;5033116;28;20435;-81
2022/04/25 04:52:28;;;;;;;1.53;1.23;;;24.10;60.10;;;;;;5032918;28;20446;-81
2022/04/25 04:54:55;;;;;;;1.30;1.10;;;24.10;60.20;;;;;;5032895;28;20439;-81
2022/04/25 04:57:22;;;;;;;2.90;1.13;;;24.10;60.30;;;;;;5031982;28;20482;-81
2022/04/25 04:59:48;;;;;;;1.17;1.07;;;24.10;60.40;;;;;;5032301;28;20960;-81
2022/04/25 05:02:16;;;;;;;1.07;0.97;;;24.10;60.10;;;;;;5032864;28;20443;-81
2022/04/25 05:04:44;;;;;;;1.80;1.70;;;24.20;60.10;;;;;;5033027;28;20454;-81
2022/04/25 05:07:11;;;;;;;1.40;1.10;;;24.10;60.10;;;;;;5033215;28;20800;-91
2022/04/25 05:09:37;;;;;;;1.30;1.20;;;24.10;60.00;;;;;;5042189;28;20433;-81
2022/04/25 05:12:05;;;;;;;1.40;1.30;;;24.10;60.20;;;;;;5050787;28;20952;-81
2022/04/25 05:14:32;;;;;;;1.20;1.10;;;24.10;60.30;;;;;;5050811;28;20445;-81
2022/04/25 05:16:59;;;;;;;1.20;1.10;;;24.10;60.10;;;;;;5051770;28;20489;-81
2022/04/25 05:19:25;;;;;;;1.50;1.10;;;24.10;60.40;;;;;;5052813;28;20441;-85
2022/04/25 05:21:53;;;;;;;2.10;1.10;;;24.10;60.40;;;;;;5052890;28;20457;-80
2022/04/25 05:24:20;;;;;;;1.40;1.30;;;24.10;60.30;;;;;;5049538;28;20815;-80
2022/04/25 05:26:48;;;;;;;1.10;1.00;;;24.10;60.20;;;;;;5052699;28;20952;-81
2022/04/25 05:29:15;;;;;;;1.33;1.23;;;24.10;60.30;;;;;;5052536;28;20452;-80
2022/04/25 05:31:42;;;;;;;2.93;1.33;;;24.10;60.50;;;;;;5040887;28;20497;-81
2022/04/25 05:34:09;;;;;;;1.30;1.20;;;24.10;60.70;;;;;;5033665;28;20450;-81
2022/04/25 05:36:35;;;;;;;1.30;1.20;;;24.10;60.60;;;;;;5037950;28;20442;-82
2022/04/25 05:39:04;;;;;;;2.43;1.30;;;24.10;60.60;;;;;;5033735;28;20486;-85
2022/04/25 05:41:31;;;;;;;2.47;1.20;;;24.00;60.90;;;;;;5034679;28;20450;-81
2022/04/25 05:43:58;;;;;;;1.33;1.23;;;24.00;60.70;;;;;;5033822;28;20802;-82
2022/04/25 05:46:25;;;;;;;2.23;1.30;;;24.00;60.70;;;;;;5033901;28;20454;-81
2022/04/25 05:54:22;;;;;;;1.30;1.20;;;24.00;60.90;;;;;;5039504;28;20446;-80
2022/04/25 05:56:49;;;;;;;1.87;1.13;;;24.10;61.00;;;;;;5038361;28;20439;-80
2022/04/25 05:59:15;;;;;;;1.30;1.10;;;24.00;60.90;;;;;;5041015;28;20446;-80
2022/04/25 06:01:42;;;;;;;1.20;1.10;;;24.00;61.10;;;;;;5039321;28;20441;-80
2022/04/25 06:04:09;;;;;;;1.40;1.13;;;24.00;60.90;;;;;;5036355;28;20454;-80
2022/04/25 06:06:35;;;;;;;2.17;1.10;;;24.00;61.00;;;;;;5036324;28;20454;-80
2022/04/25 06:09:02;;;;;;;1.50;1.00;;;24.00;61.30;;;;;;5035712;28;20485;-81
2022/04/25 06:11:32;;;;;;;1.20;1.10;;;24.00;61.40;;;;;;5035780;28;20458;-80
2022/04/25 06:13:59;;;;;;;1.53;1.17;;;24.00;61.40;;;;;;5036239;28;20839;-80
2022/04/25 06:16:26;;;;;;;2.57;1.50;;;24.10;62.00;;;;;;5035941;28;20466;-80
2022/04/25 06:18:53;;;;;;;1.60;1.50;;;24.00;62.20;;;;;;5035901;28;20483;-87
2022/04/25 06:21:20;;;;;;;1.57;1.10;;;24.00;62.10;;;;;;5044618;28;20452;-89
2022/04/25 06:23:47;;;;;;;1.53;1.43;;;24.00;62.10;;;;;;5055289;28;20454;-80
2022/04/25 06:26:13;;;;;;;1.50;1.33;;;24.20;62.70;;;;;;5049679;28;20438;-85
2022/04/25 06:28:42;;;;;;;1.30;1.10;;;24.10;62.40;;;;;;5055191;28;20444;-80
2022/04/25 06:31:09;;;;;;;1.20;1.00;;;24.10;62.20;;;;;;5048838;28;20435;-79
2022/04/25 06:33:36;;;;;;;1.40;1.27;;;24.00;62.10;;;;;;5052303;28;20525;-80
2022/04/25 06:36:04;;;;;;;1.67;1.30;;;24.00;62.60;;;;;;5055204;28;20855;-79
2022/04/25 06:38:30;;;;;;;2.57;1.40;;;24.00;62.70;;;;;;5054790;28;20538;-82
2022/04/25 06:40:57;;;;;;;2.13;1.53;;;24.10;62.80;;;;;;5054879;28;20442;-80
2022/04/25 06:43:24;;;;;;;1.23;1.13;;;24.10;62.40;;;;;;5054957;28;20445;-80
2022/04/25 06:45:54;;;;;;;1.60;1.50;;;24.10;62.40;;;;;;5055218;28;20492;-83
2022/04/25 06:48:21;;;;;;;1.50;1.40;;;24.10;62.90;;;;;;5055058;28;20480;-82
2022/04/25 06:50:48;;;;;;;2.33;1.00;;;24.10;62.70;;;;;;5055182;28;20433;-82
2022/04/25 06:53:15;;;;;;;1.30;1.20;;;24.10;62.50;;;;;;5054949;28;20516;-85
2022/04/25 06:55:41;;;;;;;1.20;1.10;;;24.00;63.10;;;;;;5055191;28;20449;-83
2022/04/25 06:58:08;;;;;;;1.33;1.23;;;24.10;63.80;;;;;;5054892;28;20843;-87
2022/04/25 07:00:35;;;;;;;1.37;1.27;;;24.10;64.00;;;;;;5054807;28;20452;-82
2022/04/25 07:03:04;;;;;;;1.87;1.00;;;24.10;64.20;;;;;;5054171;28;20446;-80
2022/04/25 07:05:30;;;;;;;1.20;1.10;;;24.10;65.40;;;;;;5054667;28;20536;-81
2022/04/25 07:07:57;;;;;;;1.20;1.00;;;24.00;64.30;;;;;;5054498;28;20469;-80
2022/04/25 07:10:24;;;;;;;2.13;1.40;;;24.10;64.60;;;;;;5054457;28;20438;-80
2022/04/25 07:12:51;;;;;;;1.13;1.03;;;24.10;65.10;;;;;;5054159;28;20437;-82
2022/04/25 07:15:19;;;;;;;3.10;2.23;;;24.10;65.10;;;;;;5054420;28;20444;-80
2022/04/25 07:17:50;;;;;;;1.80;1.70;;;24.10;64.90;;;;;;5054667;28;20567;-81
2022/04/25 07:20:18;;;;;;;1.70;1.60;;;24.10;64.70;;;;;;5054635;28;20460;-83
2022/04/25 07:30:58;;;;;;;2.70;1.50;;;24.00;61.30;;;;;;5051298;28;21021;-80
2022/04/25 07:33:26;;;;;;;2.60;1.73;;;24.00;61.00;;;;;;5040711;28;20462;-82
2022/04/25 07:35:54;;;;;;;1.60;1.50;;;24.00;60.90;;;;;;5034270;28;20454;-82
2022/04/25 07:38:22;;;;;;;1.70;1.60;;;24.00;60.80;;;;;;5034186;28;20575;-86
2022/04/25 07:40:49;;;;;;;2.50;1.53;;;24.00;60.90;;;;;;5034311;28;20934;-81
2022/04/25 07:43:15;;;;;;;3.00;1.37;;;24.00;60.50;;;;;;5033907;28;20949;-82
2022/04/25 07:45:42;;;;;;;2.43;1.37;;;24.00;60.10;;;;;;5034113;28;20449;-81
2022/04/25 07:48:09;;;;;;;3.20;1.50;;;24.00;60.00;;;;;;5033921;28;20473;-81
2022/04/25 07:50:36;;;;;;;1.80;1.40;;;24.00;60.30;;;;;;5033807;28;20443;-80
2022/04/25 07:53:05;;;;;;;1.93;1.30;;;24.10;60.20;;;;;;5033610;28;20466;-80
2022/04/25 07:55:32;;;;;;;1.73;1.63;;;24.10;60.00;;;;;;5033756;28;20525;-81
2022/04/25 07:57:59;;;;;;;1.80;1.70;;;24.10;59.90;;;;;;5033987;28;20474;-81
2022/04/25 08:00:27;;;;;;;2.00;1.77;;;24.10;59.80;;;;;;5033593;28;20446;-80
2022/04/25 08:02:53;;;;;;;1.60;1.50;;;24.10;59.70;;;;;;5033636;28;20792;-81
2022/04/25 08:05:20;;;;;;;1.50;1.40;;;24.10;59.90;;;;;;5033735;28;20444;-80
2022/04/25 08:07:47;;;;;;;1.70;1.40;;;24.10;59.90;;;;;;5033414;28;20826;-83
2022/04/25 08:10:15;;;;;;;1.70;1.60;;;24.10;59.60;;;;;;5033685;28;20438;-82
2022/04/25 08:18:12;;;;;;;1.63;1.53;;;24.10;59.50;;;;;;5036654;28;20481;-83
2022/04/25 08:20:39;;;;;;;1.63;1.50;;;24.00;59.50;;;;;;5033039;28;20471;-83
2022/04/25 08:23:10;;;;;;;1.50;1.40;;;24.00;59.50;;;;;;5044364;28;20494;-80
2022/04/25 08:25:38;;;;;;;1.87;1.40;;;24.00;59.70;;;;;;5049705;28;20450;-83
2022/04/25 08:28:06;;;;;;;2.17;1.20;;;24.00;59.70;;;;;;5050863;28;20434;-83
2022/04/25 08:30:33;;;;;;;1.83;1.73;;;24.00;59.40;;;;;;5042319;28;20431;-81
2022/04/25 08:33:01;;;;;;;3.27;1.70;;;24.00;59.60;;;;;;5033556;28;20438;-83
2022/04/25 08:35:28;;;;;;;1.80;1.70;;;24.00;59.40;;;;;;5034058;28;20521;-82
2022/04/25 08:37:55;;;;;;;1.40;1.30;;;24.00;59.40;;;;;;5034361;28;20473;-82
2022/04/25 08:40:22;;;;;;;2.27;1.30;;;24.00;59.40;;;;;;5039144;28;20525;-81
2022/04/25 08:42:50;;;;;;;1.60;1.50;;;24.00;59.50;;;;;;5052977;28;20816;-82
2022/04/25 08:45:17;;;;;;;1.60;1.50;;;24.00;59.30;;;;;;5052878;28;20450;-82
2022/04/25 08:47:48;;;;;;;1.43;1.33;;;24.00;59.30;;;;;;5048619;28;20442;-83
2022/04/25 08:50:17;;;;;;;1.40;1.30;;;24.00;59.20;;;;;;5033372;28;20950;-82
2022/04/25 08:52:45;;;;;;;3.27;1.50;;;24.00;59.40;;;;;;5032677;28;20470;-82
2022/04/25 08:55:13;;;;;;;2.27;2.10;;;24.00;59.40;;;;;;5032698;28;20455;-82
2022/04/25 08:57:41;;;;;;;1.80;1.70;;;24.00;59.70;;;;;;5032214;28;20489;-80
2022/04/25 09:00:10;;;;;;;3.27;2.40;;;24.00;59.60;;;;;;5031743;28;21081;-79
2022/04/25 09:02:39;;;;;;;2.13;1.60;;;24.00;59.60;;;;;;5032064;28;20446;-83
2022/04/25 09:05:06;;;;;;;1.67;1.40;;;24.00;59.50;;;;;;5033266;28;20478;-83
2022/04/25 09:07:34;;;;;;;1.87;1.70;;;24.00;59.50;;;;;;5032844;28;20501;-83
2022/04/25 09:10:01;;;;;;;3.27;1.40;;;24.00;59.70;;;;;;5033292;28;20489;-83
2022/04/25 09:12:29;;;;;;;2.00;1.90;;;24.00;59.60;;;;;;5032770;28;20442;-83
2022/04/25 09:14:56;;;;;;;1.83;1.73;;;24.00;59.70;;;;;;5033184;28;20445;-83
2022/04/25 09:17:24;;;;;;;1.87;1.77;;;24.00;59.70;;;;;;5052433;28;20440;-84
2022/04/25 09:19:51;;;;;;;1.90;1.80;;;24.00;59.70;;;;;;5052875;28;20485;-83
2022/04/25 09:22:31;;;;;;;1.73;1.63;;;24.00;59.80;;;;;;5052589;28;21003;-83
2022/04/25 09:25:05;;;;;;;2.40;2.30;;;24.10;59.70;;;;;;5052756;28;20445;-81
2022/04/25 09:27:33;;;;;;;3.73;3.43;;;24.00;59.30;;;;;;5055327;28;20823;-81
2022/04/25 09:30:14;;;;;;;3.87;2.83;;;24.00;58.80;;;;;;5056079;28;20450;-83
2022/04/25 09:32:42;;;;;;;2.37;2.03;;;24.00;59.00;;;;;;5056189;28;20507;-82
2022/04/25 09:35:29;;;;;;;2.90;2.47;;;23.90;59.00;;;;;;5056514;28;20445;-83
2022/04/25 09:37:57;;;;;;;2.70;1.73;;;24.00;59.10;;;;;;5055222;28;20446;-81
2022/04/25 09:40:25;;;;;;;2.70;1.63;;;23.90;59.20;;;;;;5055652;28;20991;-81
2022/04/25 09:43:11;;;;;;;1.80;1.70;;;23.90;58.90;;;;;;5051438;28;20445;-79
2022/04/25 09:45:41;;;;;;;1.60;1.50;;;24.00;59.10;;;;;;5039702;28;20458;-80
2022/04/25 09:48:14;;;;;;;2.27;1.77;;;23.90;59.00;;;;;;5046180;28;20454;-81
2022/04/25 09:50:41;;;;;;;1.87;1.77;;;23.90;58.90;;;;;;5048319;28;20454;-82
2022/04/25 09:53:10;;;;;;;2.20;2.00;;;23.90;58.90;;;;;;5048261;28;20465;-81
2022/04/25 09:55:39;;;;;;;1.73;1.63;;;23.90;58.90;;;;;;5050778;28;20466;-82
2022/04/25 09:58:22;;;;;;;1.70;1.60;;;23.90;58.80;;;;;;5066566;28;20457;-83
2022/04/25 10:00:53;;;;;;;1.60;1.50;;;24.00;58.80;;;;;;5069022;28;20897;-83
2022/04/25 10:03:34;;;;;;;2.13;2.03;;;24.00;58.90;;;;;;5053356;28;20462;-82
2022/04/25 10:06:05;;;;;;;1.60;1.50;;;24.00;58.80;;;;;;5069616;28;20445;-83
2022/04/25 10:08:35;;;;;;;1.40;1.30;;;24.00;58.80;;;;;;5069092;28;20482;-83
2022/04/25 10:11:04;;;;;;;1.80;1.70;;;24.00;59.00;;;;;;5069364;28;20499;-83
2022/04/25 10:13:32;;;;;;;1.73;1.63;;;24.00;59.00;;;;;;5069003;28;21004;-82
2022/04/25 10:16:00;;;;;;;2.40;2.20;;;24.00;59.10;;;;;;5068614;28;20472;-83
2022/04/25 10:18:31;;;;;;;5.93;2.73;;;24.00;59.60;;;;;;5053358;28;20478;-83
2022/04/25 10:20:59;;;;;;;5.40;4.63;;;24.00;59.50;;;;;;5050084;28;20443;-82
2022/04/25 10:23:26;;;;;;;2.90;2.03;;;24.10;59.70;;;;;;5048435;28;20466;-81
2022/04/25 10:25:55;;;;;;;3.47;2.50;;;24.10;59.30;;;;;;5045511;28;20447;-87
2022/04/25 10:28:30;;;;;;;3.30;1.73;;;24.10;59.60;;;;;;5048262;28;20485;-87
2022/04/25 10:31:02;;;;;;;2.00;1.90;;;24.10;59.50;;;;;;5045929;28;20462;-83
2022/04/25 10:33:49;;;;;;;3.00;2.03;;;24.20;59.40;;;;;;5051032;28;20466;-85
2022/04/25 10:36:48;;;;;;;2.40;2.30;;;24.40;59.60;;;;;;5054004;28;20463;-84
2022/04/25 10:39:17;;;;;;;4.23;2.80;;;24.30;59.30;;;;;;5047673;28;20496;-84
2022/04/25 10:44:56;;;;;;;2.27;2.07;;;24.30;59.80;;;;;;5065457;28;20433;-86
2022/04/25 10:47:24;;;;;;;4.67;2.87;;;24.40;60.00;;;;;;5058695;28;20441;-84
2022/04/25 10:50:06;;;;;;;3.27;2.97;;;24.40;60.40;;;;;;5049771;28;20443;-84
2022/04/25 10:52:54;;;;;;;5.50;2.57;;;24.40;60.50;;;;;;5048468;28;20461;-83
2022/04/25 10:55:26;;;;;;;2.13;1.70;;;24.50;60.70;;;;;;5051154;28;20929;-92
2022/04/25 10:58:21;;;;;;;2.63;2.30;;;24.40;60.90;;;;;;5046870;28;20469;-86
2022/04/25 11:00:57;;;;;;;2.50;2.20;;;24.50;61.00;;;;;;5043010;28;20450;-87
2022/04/25 11:03:31;;;;;;;2.70;2.33;;;24.50;60.70;;;;;;5043398;28;20953;-87
2022/04/25 11:06:02;;;;;;;1.57;1.47;;;24.60;60.60;;;;;;5042782;28;20470;-86
2022/04/25 11:08:40;;;;;;;2.20;1.67;;;24.50;60.20;;;;;;5042504;28;20474;-86
2022/04/25 11:11:20;;;;;;;2.80;2.20;;;24.60;60.30;;;;;;5045842;28;20518;-87
2022/04/25 11:14:15;;;;;;;2.77;2.43;;;24.50;60.20;;;;;;5054843;28;20456;-88
2022/04/25 11:16:42;;;;;;;1.70;1.60;;;24.50;60.00;;;;;;5039479;28;20476;-89
2022/04/25 11:19:21;;;;;;;3.10;2.80;;;24.50;60.00;;;;;;5034921;28;20556;-89
2022/04/25 11:21:55;;;;;;;2.10;2.00;;;24.50;59.50;;;;;;5036315;28;20497;-85
2022/04/25 11:24:33;;;;;;;2.50;1.80;;;24.50;59.60;;;;;;5045895;28;20445;-86
2022/04/25 11:27:02;;;;;;;1.73;1.63;;;24.60;59.70;;;;;;5054223;28;20468;-85
2022/04/25 11:29:31;;;;;;;2.07;1.97;;;24.50;59.70;;;;;;5054384;28;20444;-85
2022/04/25 11:32:24;;;;;;;2.00;1.90;;;24.50;59.70;;;;;;5054168;28;20444;-85
2022/04/25 11:34:51;;;;;;;1.70;1.60;;;24.50;59.60;;;;;;5054239;28;20515;-85
2022/04/25 11:37:22;;;;;;;2.37;1.87;;;24.40;59.60;;;;;;5054266;28;20445;-86
2022/04/25 11:40:00;;;;;;;1.90;1.80;;;24.40;59.60;;;;;;5053549;28;20492;-82
2022/04/25 11:42:29;;;;;;;2.37;2.17;;;24.60;59.60;;;;;;5054247;28;20438;-82
2022/04/25 11:44:56;;;;;;;1.87;1.70;;;24.50;59.60;;;;;;5054087;28;20476;-81
2022/04/25 11:47:23;;;;;;;2.57;2.13;;;24.40;59.50;;;;;;5054032;28;20442;-82
2022/04/25 11:49:57;;;;;;;1.90;1.70;;;24.40;59.50;;;;;;5052701;28;20449;-81
2022/04/25 11:52:26;;;;;;;2.20;2.10;;;24.50;59.60;;;;;;5053418;28;20497;-83
2022/04/25 11:54:53;;;;;;;2.93;1.53;;;24.40;59.50;;;;;;5053410;28;20764;-81
2022/04/25 11:57:20;;;;;;;1.83;1.73;;;24.40;59.70;;;;;;5054042;28;20446;-81
2022/04/25 11:59:46;;;;;;;2.10;1.90;;;24.40;59.50;;;;;;5053475;28;20714;-83
2022/04/25 12:02:13;;;;;;;2.03;1.93;;;24.40;59.50;;;;;;5053712;28;20449;-81
2022/04/25 12:04:42;;;;;;;2.23;1.70;;;24.40;59.50;;;;;;5053503;28;20529;-82
2022/04/25 12:07:10;;;;;;;2.00;1.80;;;24.40;59.50;;;;;;5053759;28;20445;-82
2022/04/25 12:15:36;;;;;;;9.13;2.80;;;24.30;59.40;;;;;;4971442;28;20925;-81
2022/04/25 12:18:14;;;;;;;2.00;1.90;;;24.30;59.40;;;;;;5040691;28;20496;-81
2022/04/25 12:20:44;;;;;;;2.80;2.00;;;24.30;59.40;;;;;;5052339;28;20492;-80
2022/04/25 12:23:20;;;;;;;1.97;1.87;;;24.20;59.30;;;;;;5052126;28;20552;-82
2022/04/25 12:25:48;;;;;;;2.00;1.90;;;24.20;59.30;;;;;;5051967;28;21081;-81
2022/04/25 12:28:20;;;;;;;2.20;2.10;;;24.20;59.20;;;;;;5052035;28;20453;-82
2022/04/25 12:30:49;;;;;;;2.53;1.80;;;24.20;59.10;;;;;;5052578;28;20992;-81
2022/04/25 12:33:17;;;;;;;2.30;2.20;;;24.20;59.10;;;;;;5053318;28;20876;-81
2022/04/25 12:35:45;;;;;;;1.90;1.63;;;24.20;59.10;;;;;;5053254;28;20442;-80
2022/04/25 12:38:33;;;;;;;2.10;2.00;;;24.20;59.10;;;;;;5053051;28;20433;-81
2022/04/25 12:41:01;;;;;;;1.70;1.60;;;24.20;59.00;;;;;;5053432;28;20489;-80
2022/04/25 12:43:38;;;;;;;1.77;1.67;;;24.20;59.10;;;;;;5053384;28;20441;-80
2022/04/25 12:46:06;;;;;;;2.07;1.97;;;24.20;59.60;;;;;;5053215;28;20527;-81
2022/04/25 12:49:01;;;;;;;2.57;1.90;;;24.20;59.10;;;;;;5052986;28;20481;-80
2022/04/25 12:51:30;;;;;;;1.70;1.60;;;24.20;59.10;;;;;;5052981;28;20441;-80
2022/04/25 12:53:56;;;;;;;2.00;1.90;;;24.20;59.20;;;;;;5052934;28;20437;-81
2022/04/25 12:56:26;;;;;;;2.10;2.00;;;24.20;59.20;;;;;;5052903;28;20438;-81
2022/04/25 12:58:53;;;;;;;1.90;1.80;;;24.20;59.20;;;;;;5052590;28;20800;-80
2022/04/25 13:01:30;;;;;;;2.27;2.07;;;24.20;59.30;;;;;;5054694;28;20496;-81
2022/04/25 13:04:09;;;;;;;2.07;1.93;;;24.20;59.30;;;;;;5057162;28;20445;-81
2022/04/25 13:06:37;;;;;;;1.63;1.53;;;24.20;59.40;;;;;;5057018;28;20446;-81
2022/04/25 13:09:04;;;;;;;1.60;1.50;;;24.20;59.40;;;;;;5056229;28;20572;-83
2022/04/25 13:11:33;;;;;;;2.07;1.97;;;24.20;59.50;;;;;;5055650;28;20442;-80
2022/04/25 13:14:00;;;;;;;2.20;2.10;;;24.20;59.50;;;;;;5055648;28;20560;-81
2022/04/25 13:16:28;;;;;;;1.70;1.60;;;24.20;59.50;;;;;;5055769;28;20438;-80
2022/04/25 13:18:55;;;;;;;1.70;1.60;;;24.20;59.50;;;;;;5055479;28;20437;-80
2022/04/25 13:21:22;;;;;;;2.40;2.13;;;24.20;59.50;;;;;;5054900;28;20485;-81
2022/04/25 13:23:50;;;;;;;2.17;2.07;;;24.20;59.60;;;;;;5055541;28;20515;-81
2022/04/25 13:26:17;;;;;;;2.00;1.83;;;24.20;59.60;;;;;;5055388;28;20575;-81
2022/04/25 13:28:46;;;;;;;1.97;1.87;;;24.20;59.70;;;;;;5056899;28;20449;-82
2022/04/25 13:31:13;;;;;;;1.80;1.70;;;24.20;59.60;;;;;;5056581;28;20441;-80
2022/04/25 13:33:40;;;;;;;1.93;1.80;;;24.10;59.50;;;;;;5056681;28;20453;-82